Pride — ZDFD7 — position and weather

sailwx.info

Track history (hours):
 
Tides and Currents Weather Stations Pressure Air Temp Water Temp Dewpoint Dewpoint Depression Visibility Wind Speed Wind Dir Waves Ship Positions

Pride

Last reported at 2017-Feb-21 21:16 UTC. Time now 2017-Feb-24 21:39 UTC.
Position N 48°57' W 003°03'.

Length 88 m; draft 3.5 m.

Type: Cargo ship. MMSI: 236166000.

Date/timePositionNaut miles runAvg speedWind from/ knotsBaromVisibWave heightAir tempDewpointWater temp
2017-Feb-21 21:16N 48°57' W 003°03'51 8.3
2017-Feb-21 15:06N 48°48' W 004°19'5 9.2
2017-Feb-21 14:34N 48°46' W 004°26'10 9.5
2017-Feb-21 13:33N 48°44' W 004°40'10 9.7
2017-Feb-21 12:34N 48°42' W 004°54'10 9.7
2017-Feb-21 11:34N 48°39' W 005°09'10 9.5
2017-Feb-21 10:33N 48°33' W 005°20'23 9.4
2017-Feb-21 08:06N 48°11' W 005°15'9 9.3
2017-Feb-21 07:10N 48°03' W 005°10'6 9.5
2017-Feb-21 06:33N 47°60' W 005°02'10 9.7
2017-Feb-21 05:33N 47°55' W 004°50'24 9.9
2017-Feb-21 03:08N 47°42' W 004°20'10 9.8
2017-Feb-21 02:03N 47°36' W 004°06'5 9.9
2017-Feb-21 01:32N 47°33' W 004°00'9 9.6
2017-Feb-21 00:33N 47°28' W 003°48'9 9.4
2017-Feb-20 23:34N 47°23' W 003°37'10 9.5
2017-Feb-20 22:33N 47°19' W 003°24'10 9.7
2017-Feb-20 21:34N 47°14' W 003°12'10 9.9
2017-Feb-20 20:33N 47°09' W 002°59'10 9.6
2017-Feb-20 19:33N 47°05' W 002°46'9 8.9
2017-Feb-20 18:29N 47°03' W 002°33'9 9.2
2017-Feb-20 17:34N 47°08' W 002°22'10 9.9
2017-Feb-20 16:34N 47°15' W 002°13'3 3.5
2017-Feb-20 15:33N 47°18' W 002°09'0 0.0
2017-Feb-20 14:33N 47°18' W 002°09'0 0.0
2017-Feb-20 13:18N 47°18' W 002°09'0 0.0
2017-Feb-20 12:33N 47°18' W 002°09'0 0.0
2017-Feb-20 10:27N 47°18' W 002°09'0 0.0
2017-Feb-20 09:33N 47°18' W 002°09'0 0.0
2017-Feb-20 08:28N 47°18' W 002°09'0 0.0
2017-Feb-20 07:08N 47°18' W 002°09'0 0.0
2017-Feb-20 06:32N 47°18' W 002°09'0 0.0
2017-Feb-20 05:33N 47°18' W 002°09'0 0.0
2017-Feb-20 04:32N 47°18' W 002°09'0 0.0
2017-Feb-20 03:32N 47°18' W 002°09'0 0.0
2017-Feb-20 02:26N 47°18' W 002°09'0 0.0
2017-Feb-20 01:33N 47°18' W 002°09'0 0.0
2017-Feb-20 00:32N 47°18' W 002°09'0 0.0
2017-Feb-19 23:29N 47°18' W 002°09'0 0.0
2017-Feb-19 22:33N 47°18' W 002°09'0 0.0
2017-Feb-19 21:27N 47°18' W 002°09'0 0.0
2017-Feb-19 20:33N 47°18' W 002°09'0 0.0
2017-Feb-19 19:32N 47°18' W 002°09'0 0.0
2017-Feb-19 18:32N 47°18' W 002°09'0 0.0
2017-Feb-19 17:26N 47°18' W 002°09'0 0.0
2017-Feb-19 16:26N 47°18' W 002°09'0 0.0
2017-Feb-19 15:29N 47°18' W 002°09'0 0.0
2017-Feb-19 14:26N 47°18' W 002°09'0 0.0
2017-Feb-19 13:30N 47°18' W 002°09'0 0.0
2017-Feb-19 12:31N 47°18' W 002°09'0 0.0
2017-Feb-19 11:32N 47°18' W 002°09'0 0.0
2017-Feb-19 10:20N 47°18' W 002°09'0 0.0
2017-Feb-19 09:33N 47°18' W 002°09'0 0.0
2017-Feb-19 08:27N 47°18' W 002°09'0 0.0
2017-Feb-19 07:32N 47°18' W 002°09'0 0.0
2017-Feb-19 06:30N 47°18' W 002°09'0 0.0
2017-Feb-19 05:33N 47°18' W 002°09'0 0.0
2017-Feb-19 04:33N 47°18' W 002°09'0 0.0
2017-Feb-19 03:33N 47°18' W 002°09'0 0.0
2017-Feb-19 02:27N 47°18' W 002°09'0 0.0
2017-Feb-19 01:30N 47°18' W 002°09'0 0.0
2017-Feb-19 00:25N 47°18' W 002°09'0 0.0
2017-Feb-18 23:33N 47°18' W 002°09'0 0.0
2017-Feb-18 22:26N 47°18' W 002°09'0 0.0
2017-Feb-18 21:33N 47°18' W 002°09'0 0.0
2017-Feb-18 20:33N 47°18' W 002°09'0 0.0
2017-Feb-18 19:32N 47°18' W 002°09'1 0.7
2017-Feb-18 18:33N 47°17' W 002°10'1010.4
2017-Feb-18 17:33N 47°09' W 002°19'1010.0
2017-Feb-18 16:33N 47°03' W 002°30'1110.6
2017-Feb-18 15:33N 46°56' W 002°43'1110.4
2017-Feb-18 14:32N 46°47' W 002°52'1010.3
2017-Feb-18 13:33N 46°39' W 003°00'1210.2
2017-Feb-18 12:23N 46°29' W 003°10'18710.4
2017-Feb-17 18:24N 43°55' W 005°41'910.6
2017-Feb-17 17:33N 43°48' W 005°48'14 0.4
2017-Feb-16 09:15N 43°36' W 005°59'0 0.0
2017-Feb-16 08:18N 43°36' W 005°59'3 1.7
2017-Feb-16 06:24N 43°39' W 005°56'7 7.8
2017-Feb-16 05:33N 43°42' W 005°48'8 8.3
2017-Feb-16 04:33N 43°41' W 005°36'6 5.6
2017-Feb-16 03:33N 43°41' W 005°28'6 5.7
2017-Feb-16 02:33N 43°40' W 005°21'7 5.7
2017-Feb-16 01:22N 43°40' W 005°11'5 5.9
2017-Feb-16 00:33N 43°40' W 005°05'  
2017-Feb-12 07:33N 48°07' W 005°35'  
Track history (hours):
 
Tides and Currents Weather Stations Pressure Air Temp Water Temp Dewpoint Dewpoint Depression Visibility Wind Speed Wind Dir Waves Ship Positions

Pride

Last reported at 2017-Feb-21 21:16 UTC. Time now 2017-Feb-24 21:39 UTC.
Position N 48°57' W 003°03'.

Length 88 m; draft 3.5 m.

Type: Cargo ship. MMSI: 236166000.

Date/timePositionNaut miles runAvg speedWind from/ knotsBaromVisibWave heightAir tempDewpointWater temp
2017-Feb-21 21:16N 48°57' W 003°03'51 8.3
2017-Feb-21 15:06N 48°48' W 004°19'5 9.2
2017-Feb-21 14:34N 48°46' W 004°26'10 9.5
2017-Feb-21 13:33N 48°44' W 004°40'10 9.7
2017-Feb-21 12:34N 48°42' W 004°54'10 9.7
2017-Feb-21 11:34N 48°39' W 005°09'10 9.5
2017-Feb-21 10:33N 48°33' W 005°20'23 9.4
2017-Feb-21 08:06N 48°11' W 005°15'9 9.3
2017-Feb-21 07:10N 48°03' W 005°10'6 9.5
2017-Feb-21 06:33N 47°60' W 005°02'10 9.7
2017-Feb-21 05:33N 47°55' W 004°50'24 9.9
2017-Feb-21 03:08N 47°42' W 004°20'10 9.8
2017-Feb-21 02:03N 47°36' W 004°06'5 9.9
2017-Feb-21 01:32N 47°33' W 004°00'9 9.6
2017-Feb-21 00:33N 47°28' W 003°48'9 9.4
2017-Feb-20 23:34N 47°23' W 003°37'10 9.5
2017-Feb-20 22:33N 47°19' W 003°24'10 9.7
2017-Feb-20 21:34N 47°14' W 003°12'10 9.9
2017-Feb-20 20:33N 47°09' W 002°59'10 9.6
2017-Feb-20 19:33N 47°05' W 002°46'9 8.9
2017-Feb-20 18:29N 47°03' W 002°33'9 9.2
2017-Feb-20 17:34N 47°08' W 002°22'10 9.9
2017-Feb-20 16:34N 47°15' W 002°13'3 3.5
2017-Feb-20 15:33N 47°18' W 002°09'0 0.0
2017-Feb-20 14:33N 47°18' W 002°09'0 0.0
2017-Feb-20 13:18N 47°18' W 002°09'0 0.0
2017-Feb-20 12:33N 47°18' W 002°09'0 0.0
2017-Feb-20 10:27N 47°18' W 002°09'0 0.0
2017-Feb-20 09:33N 47°18' W 002°09'0 0.0
2017-Feb-20 08:28N 47°18' W 002°09'0 0.0
2017-Feb-20 07:08N 47°18' W 002°09'0 0.0
2017-Feb-20 06:32N 47°18' W 002°09'0 0.0
2017-Feb-20 05:33N 47°18' W 002°09'0 0.0
2017-Feb-20 04:32N 47°18' W 002°09'0 0.0
2017-Feb-20 03:32N 47°18' W 002°09'0 0.0
2017-Feb-20 02:26N 47°18' W 002°09'0 0.0
2017-Feb-20 01:33N 47°18' W 002°09'0 0.0
2017-Feb-20 00:32N 47°18' W 002°09'0 0.0
2017-Feb-19 23:29N 47°18' W 002°09'0 0.0
2017-Feb-19 22:33N 47°18' W 002°09'0 0.0
2017-Feb-19 21:27N 47°18' W 002°09'0 0.0
2017-Feb-19 20:33N 47°18' W 002°09'0 0.0
2017-Feb-19 19:32N 47°18' W 002°09'0 0.0
2017-Feb-19 18:32N 47°18' W 002°09'0 0.0
2017-Feb-19 17:26N 47°18' W 002°09'0 0.0
2017-Feb-19 16:26N 47°18' W 002°09'0 0.0
2017-Feb-19 15:29N 47°18' W 002°09'0 0.0
2017-Feb-19 14:26N 47°18' W 002°09'0 0.0
2017-Feb-19 13:30N 47°18' W 002°09'0 0.0
2017-Feb-19 12:31N 47°18' W 002°09'0 0.0
2017-Feb-19 11:32N 47°18' W 002°09'0 0.0
2017-Feb-19 10:20N 47°18' W 002°09'0 0.0
2017-Feb-19 09:33N 47°18' W 002°09'0 0.0
2017-Feb-19 08:27N 47°18' W 002°09'0 0.0
2017-Feb-19 07:32N 47°18' W 002°09'0 0.0
2017-Feb-19 06:30N 47°18' W 002°09'0 0.0
2017-Feb-19 05:33N 47°18' W 002°09'0 0.0
2017-Feb-19 04:33N 47°18' W 002°09'0 0.0
2017-Feb-19 03:33N 47°18' W 002°09'0 0.0
2017-Feb-19 02:27N 47°18' W 002°09'0 0.0
2017-Feb-19 01:30N 47°18' W 002°09'0 0.0
2017-Feb-19 00:25N 47°18' W 002°09'0 0.0
2017-Feb-18 23:33N 47°18' W 002°09'0 0.0
2017-Feb-18 22:26N 47°18' W 002°09'0 0.0
2017-Feb-18 21:33N 47°18' W 002°09'0 0.0
2017-Feb-18 20:33N 47°18' W 002°09'0 0.0
2017-Feb-18 19:32N 47°18' W 002°09'1 0.7
2017-Feb-18 18:33N 47°17' W 002°10'1010.4
2017-Feb-18 17:33N 47°09' W 002°19'1010.0
2017-Feb-18 16:33N 47°03' W 002°30'1110.6
2017-Feb-18 15:33N 46°56' W 002°43'1110.4
2017-Feb-18 14:32N 46°47' W 002°52'1010.3
2017-Feb-18 13:33N 46°39' W 003°00'1210.2
2017-Feb-18 12:23N 46°29' W 003°10'18710.4
2017-Feb-17 18:24N 43°55' W 005°41'910.6
2017-Feb-17 17:33N 43°48' W 005°48'14 0.4
2017-Feb-16 09:15N 43°36' W 005°59'0 0.0
2017-Feb-16 08:18N 43°36' W 005°59'3 1.7
2017-Feb-16 06:24N 43°39' W 005°56'7 7.8
2017-Feb-16 05:33N 43°42' W 005°48'8 8.3
2017-Feb-16 04:33N 43°41' W 005°36'6 5.6
2017-Feb-16 03:33N 43°41' W 005°28'6 5.7
2017-Feb-16 02:33N 43°40' W 005°21'7 5.7
2017-Feb-16 01:22N 43°40' W 005°11'5 5.9
2017-Feb-16 00:33N 43°40' W 005°05'  
2017-Feb-12 07:33N 48°07' W 005°35'  

Dump ship's entire track history